Time;durP1;ratioP1;P1;durP2;ratioP2;P2;SDS_P1;SDS_P2;PMS_P1;PMS_P2;Temp;Humidity;BMP_temperature;BMP_pressure;BME280_temperature;BME280_humidity;BME280_pressure;Samples;Min_cycle;Max_cycle;Signal;HPM_P1;HPM_P2
2021/01/16 00:00:47;;;;;;;12.83;7.47;;;2.60;1.00;;;;;;5027318;28;20246;-80
2021/01/16 00:03:15;;;;;;;15.63;9.03;;;2.50;99.90;;;;;;5043660;28;20202;-77
2021/01/16 00:05:43;;;;;;;13.63;7.57;;;2.50;1.00;;;;;;5036967;28;20292;-79
2021/01/16 00:08:17;;;;;;;14.73;8.00;;;2.50;1.00;;;;;;5041348;28;20234;-79
2021/01/16 00:10:51;;;;;;;17.07;9.23;;;2.70;26.00;;;;;;5038072;28;20210;-80
2021/01/16 00:13:20;;;;;;;14.13;7.97;;;3.00;1.00;;;;;;5046577;28;20270;-79
2021/01/16 00:15:46;;;;;;;14.27;7.87;;;2.60;1.00;;;;;;5042039;28;20212;-79
2021/01/16 00:18:24;;;;;;;13.50;7.40;;;2.50;1.00;;;;;;5041052;28;20586;-78
2021/01/16 00:20:55;;;;;;;12.40;7.10;;;2.40;99.90;;;;;;5039157;28;20198;-78
2021/01/16 00:23:23;;;;;;;13.43;7.20;;;2.40;1.00;;;;;;5022511;28;20234;-79
2021/01/16 00:25:49;;;;;;;13.17;7.07;;;2.50;99.90;;;;;;5016542;28;20252;-79
2021/01/16 00:28:21;;;;;;;11.83;7.27;;;2.50;1.00;;;;;;5042077;28;20222;-79
2021/01/16 00:30:48;;;;;;;15.00;8.60;;;2.50;99.90;;;;;;5039007;28;20278;-78
2021/01/16 00:33:26;;;;;;;13.73;7.73;;;2.40;1.00;;;;;;5037560;28;20210;-80
2021/01/16 00:35:56;;;;;;;12.90;7.30;;;2.50;1.00;;;;;;5041010;28;20306;-80
2021/01/16 00:38:25;;;;;;;12.10;7.50;;;2.70;99.90;;;;;;5039433;28;20192;-79
2021/01/16 00:40:52;;;;;;;12.13;7.47;;;2.80;1.00;;;;;;5041565;28;20201;-80
2021/01/16 00:43:18;;;;;;;17.93;9.07;;;2.70;1.00;;;;;;5044317;28;20230;-80
2021/01/16 00:45:46;;;;;;;12.30;7.43;;;2.80;1.00;;;;;;5034694;28;20219;-77
2021/01/16 00:48:14;;;;;;;11.93;7.63;;;2.80;99.90;;;;;;5033755;28;20269;-78
2021/01/16 00:50:41;;;;;;;12.37;8.07;;;2.70;99.90;;;;;;5042926;28;20271;-78
2021/01/16 00:53:08;;;;;;;11.67;7.70;;;2.70;99.90;;;;;;5042792;28;20281;-79
2021/01/16 00:55:35;;;;;;;14.97;7.93;;;2.50;1.00;;;;;;5039269;28;20226;-79
2021/01/16 00:58:09;;;;;;;15.20;7.70;;;2.50;99.90;;;;;;5028088;28;20728;-79
2021/01/16 01:00:37;;;;;;;13.67;7.90;;;2.70;99.90;;;;;;5038502;28;20199;-79
2021/01/16 01:03:04;;;;;;;13.43;7.53;;;2.90;99.90;;;;;;5045249;28;20626;-80
2021/01/16 01:05:31;;;;;;;13.80;8.00;;;3.10;1.00;;;;;;5043617;28;20262;-79
2021/01/16 01:07:57;;;;;;;11.83;8.07;;;3.10;99.90;;;;;;5024111;28;20742;-79
2021/01/16 01:10:32;;;;;;;13.27;8.13;;;3.00;99.90;;;;;;5010802;28;20289;-80
2021/01/16 01:12:58;;;;;;;15.77;7.93;;;3.00;1.00;;;;;;5025937;28;20564;-78
2021/01/16 01:15:25;;;;;;;15.17;8.30;;;2.80;1.00;;;;;;5059197;28;20253;-79
2021/01/16 01:17:54;;;;;;;15.33;8.60;;;2.60;1.00;;;;;;5031407;28;20191;-79
2021/01/16 01:20:21;;;;;;;15.17;8.20;;;2.50;1.00;;;;;;5047645;28;20605;-78
2021/01/16 01:22:48;;;;;;;14.17;8.57;;;2.40;1.00;;;;;;5047729;28;20337;-79
2021/01/16 01:25:15;;;;;;;12.30;7.37;;;2.60;1.00;;;;;;5035604;28;20220;-79
2021/01/16 01:27:43;;;;;;;15.77;9.07;;;2.70;1.00;;;;;;5006985;28;20200;-78
2021/01/16 01:30:10;;;;;;;13.87;8.10;;;2.50;1.00;;;;;;5023939;28;20200;-79
2021/01/16 01:32:36;;;;;;;13.43;7.97;;;2.50;1.00;;;;;;5020085;28;20204;-79
2021/01/16 01:35:03;;;;;;;16.90;10.13;;;2.70;1.00;;;;;;5010138;28;20625;-80
2021/01/16 01:37:29;;;;;;;17.33;9.77;;;2.70;99.90;;;;;;5021075;28;20309;-79
2021/01/16 01:39:56;;;;;;;13.97;8.80;;;2.90;1.00;;;;;;5046734;28;20204;-80
2021/01/16 01:42:23;;;;;;;13.40;8.13;;;3.10;1.00;;;;;;5011807;28;20598;-79
2021/01/16 01:44:49;;;;;;;13.53;9.17;;;3.30;99.90;;;;;;5030658;28;20196;-79
2021/01/16 01:47:17;;;;;;;15.70;8.67;;;3.40;1.00;;;;;;5040058;28;20291;-79
2021/01/16 01:49:45;;;;;;;15.67;8.10;;;3.30;1.00;;;;;;5032726;28;20229;-79
2021/01/16 01:52:13;;;;;;;15.77;10.00;;;2.90;1.00;;;;;;5037028;28;20275;-80
2021/01/16 01:54:41;;;;;;;17.90;8.37;;;2.60;99.90;;;;;;5034856;28;20219;-80
2021/01/16 01:57:14;;;;;;;13.00;8.37;;;2.40;1.00;;;;;;5040040;28;20719;-80
2021/01/16 01:59:42;;;;;;;19.10;9.77;;;2.20;99.90;;;;;;5041909;28;21157;-80
2021/01/16 02:02:09;;;;;;;18.73;8.50;;;2.20;99.90;;;;;;5041117;28;20211;-80
2021/01/16 02:04:38;;;;;;;17.57;9.20;;;2.30;1.00;;;;;;5027609;28;20204;-80
2021/01/16 02:07:24;;;;;;;14.53;9.57;;;2.50;1.00;;;;;;5019036;28;20621;-79
2021/01/16 02:09:52;;;;;;;18.40;9.43;;;2.60;1.00;;;;;;5027873;28;20242;-79
2021/01/16 02:12:19;;;;;;;13.50;8.30;;;2.20;1.00;;;;;;5022936;28;20298;-80
2021/01/16 02:15:00;;;;;;;15.63;8.97;;;2.10;1.00;;;;;;5054604;28;20616;-79
2021/01/16 02:17:32;;;;;;;13.67;8.70;;;2.00;99.90;;;;;;5033783;28;20292;-79
2021/01/16 02:20:04;;;;;;;15.03;8.97;;;2.00;1.00;;;;;;5026446;28;21279;-80
2021/01/16 02:22:34;;;;;;;17.53;9.60;;;2.00;1.00;;;;;;5038742;28;20337;-80
2021/01/16 02:25:15;;;;;;;13.30;8.77;;;1.80;99.90;;;;;;5033204;28;20631;-80
2021/01/16 02:28:06;;;;;;;17.90;8.93;;;1.90;1.00;;;;;;5033752;28;20294;-80
2021/01/16 02:30:35;;;;;;;18.90;8.60;;;1.90;1.00;;;;;;5026872;28;20203;-80
2021/01/16 02:33:07;;;;;;;16.90;8.70;;;1.90;1.00;;;;;;5041784;28;20229;-80
2021/01/16 02:35:43;;;;;;;17.40;9.37;;;2.00;1.00;;;;;;5035203;28;20276;-77
2021/01/16 02:38:25;;;;;;;16.13;8.60;;;2.00;99.90;;;;;;5051054;28;20207;-79
2021/01/16 02:40:58;;;;;;;15.23;8.97;;;2.40;99.90;;;;;;5030234;28;20645;-79
2021/01/16 02:43:25;;;;;;;13.07;8.53;;;2.80;1.00;;;;;;5050198;28;20292;-79
2021/01/16 02:46:19;;;;;;;13.73;7.97;;;2.90;99.90;;;;;;5042943;28;20206;-77
2021/01/16 02:49:04;;;;;;;14.90;8.97;;;3.00;18.70;;;;;;5040435;28;20296;-79
2021/01/16 02:52:03;;;;;;;16.07;8.50;;;3.10;1.00;;;;;;5035301;28;20203;-79
2021/01/16 02:54:35;;;;;;;15.40;9.73;;;3.00;1.00;;;;;;5049098;28;20284;-81
2021/01/16 02:57:04;;;;;;;15.00;9.23;;;3.20;1.00;;;;;;5044947;28;20314;-80
2021/01/16 02:59:37;;;;;;;15.07;8.63;;;3.10;1.00;;;;;;5037415;28;20215;-80
2021/01/16 03:02:07;;;;;;;17.83;9.23;;;3.20;1.00;;;;;;5052705;28;20279;-80
2021/01/16 03:04:34;;;;;;;12.87;8.47;;;3.20;1.00;;;;;;5040101;28;20203;-79
2021/01/16 03:07:02;;;;;;;16.47;9.40;;;3.20;99.90;;;;;;5028865;28;20632;-81
2021/01/16 03:09:29;;;;;;;12.77;8.37;;;3.20;1.00;;;;;;5038740;28;20273;-81
2021/01/16 03:11:57;;;;;;;16.50;9.63;;;3.00;1.00;;;;;;5015560;28;20265;-81
2021/01/16 03:14:27;;;;;;;18.67;9.60;;;3.10;1.00;;;;;;5043119;28;20205;-80
2021/01/16 03:17:08;;;;;;;15.37;9.37;;;3.20;99.90;;;;;;5043743;28;20212;-80
2021/01/16 03:19:42;;;;;;;14.07;8.53;;;3.20;83.40;;;;;;5046741;28;20208;-82
2021/01/16 03:22:25;;;;;;;16.43;9.27;;;3.30;1.00;;;;;;5037926;28;20273;-80
2021/01/16 03:24:56;;;;;;;14.90;8.37;;;3.30;1.00;;;;;;5030160;28;20566;-80
2021/01/16 03:27:24;;;;;;;13.47;7.93;;;3.30;1.00;;;;;;5024576;28;20258;-80
2021/01/16 03:29:52;;;;;;;16.40;9.80;;;3.10;1.00;;;;;;5024443;28;20223;-79
2021/01/16 03:32:20;;;;;;;16.97;9.20;;;3.00;1.00;;;;;;5045457;28;20241;-80
2021/01/16 03:34:48;;;;;;;17.00;9.43;;;2.80;99.90;;;;;;5042132;28;20343;-80
2021/01/16 03:37:16;;;;;;;14.53;9.03;;;2.80;1.00;;;;;;5022390;28;20325;-80
2021/01/16 03:39:47;;;;;;;16.43;9.87;;;2.80;99.90;;;;;;5049774;28;20205;-79
2021/01/16 03:42:14;;;;;;;18.57;7.90;;;2.80;1.00;;;;;;5019665;28;20197;-79
2021/01/16 03:44:40;;;;;;;13.63;8.57;;;2.50;99.90;;;;;;5058542;28;20201;-80
2021/01/16 03:47:07;;;;;;;13.30;8.23;;;2.40;1.00;;;;;;5050233;28;20232;-80
2021/01/16 03:49:34;;;;;;;14.47;8.60;;;2.50;1.00;;;;;;5036134;28;20207;-80
2021/01/16 03:52:01;;;;;;;16.83;9.07;;;2.60;1.00;;;;;;5042370;28;20287;-80
2021/01/16 03:54:27;;;;;;;13.83;8.80;;;2.50;1.00;;;;;;5028265;28;20655;-80
2021/01/16 03:56:54;;;;;;;12.20;8.17;;;2.50;1.00;;;;;;5009477;28;20365;-80
2021/01/16 03:59:20;;;;;;;13.30;8.90;;;2.60;99.90;;;;;;5041119;28;20196;-80
2021/01/16 04:01:47;;;;;;;18.67;9.77;;;2.60;1.00;;;;;;5027734;28;20211;-79
2021/01/16 04:04:14;;;;;;;19.23;9.43;;;2.70;1.00;;;;;;5037257;28;20266;-80
2021/01/16 04:06:40;;;;;;;16.10;9.47;;;2.90;99.90;;;;;;5028818;28;20215;-80
2021/01/16 04:09:07;;;;;;;15.53;9.37;;;3.00;1.00;;;;;;5032221;28;20269;-77
2021/01/16 04:11:33;;;;;;;13.80;8.50;;;3.10;1.00;;;;;;5019666;28;20736;-80
2021/01/16 04:14:00;;;;;;;18.70;10.03;;;3.20;1.00;;;;;;5022701;28;20628;-79
2021/01/16 04:16:27;;;;;;;16.03;9.53;;;3.10;1.00;;;;;;5009125;28;20277;-80
2021/01/16 04:18:54;;;;;;;15.50;9.27;;;2.80;1.00;;;;;;5032038;28;20272;-80
2021/01/16 04:21:21;;;;;;;14.20;9.33;;;2.60;1.00;;;;;;5040943;28;20209;-80
2021/01/16 04:23:48;;;;;;;13.53;9.67;;;2.60;14.70;;;;;;5032525;28;20242;-79
2021/01/16 04:26:14;;;;;;;15.10;9.20;;;2.60;1.00;;;;;;5035951;28;20200;-80
2021/01/16 04:28:40;;;;;;;15.80;9.47;;;2.50;1.00;;;;;;5038290;28;20219;-80
2021/01/16 04:31:07;;;;;;;18.13;10.10;;;2.50;1.00;;;;;;5039634;28;20273;-80
2021/01/16 04:33:33;;;;;;;15.93;10.23;;;2.60;1.00;;;;;;5037137;28;20287;-79
2021/01/16 04:36:00;;;;;;;21.83;9.30;;;2.70;1.00;;;;;;5037568;28;20225;-79
2021/01/16 04:38:26;;;;;;;14.27;9.17;;;2.60;1.00;;;;;;5054643;28;20204;-79
2021/01/16 04:40:53;;;;;;;14.37;9.60;;;2.50;1.00;;;;;;5025607;28;20236;-79
2021/01/16 04:43:21;;;;;;;16.57;9.83;;;2.50;3.70;;;;;;5040107;28;20294;-79
2021/01/16 04:45:49;;;;;;;17.63;10.07;;;2.40;1.00;;;;;;5035381;28;20191;-79
2021/01/16 04:48:18;;;;;;;16.40;9.83;;;2.20;2.10;;;;;;5019352;28;20215;-79
2021/01/16 04:50:48;;;;;;;14.47;9.47;;;2.20;1.00;;;;;;5045291;28;20200;-79
2021/01/16 04:53:18;;;;;;;14.87;9.27;;;2.20;1.00;;;;;;5025540;28;20196;-79
2021/01/16 04:55:46;;;;;;;17.67;9.63;;;2.20;99.90;;;;;;5042047;28;20229;-79
2021/01/16 04:58:13;;;;;;;17.37;10.37;;;2.60;1.00;;;;;;5039138;28;20250;-79
2021/01/16 05:00:41;;;;;;;16.53;9.33;;;2.60;57.30;;;;;;5042654;28;20196;-79
2021/01/16 05:03:12;;;;;;;14.90;8.43;;;2.90;99.90;;;;;;5046192;28;20526;-79
2021/01/16 05:05:43;;;;;;;17.67;10.43;;;3.00;1.00;;;;;;5037580;28;20211;-79
2021/01/16 05:08:10;;;;;;;20.57;10.33;;;2.90;1.00;;;;;;5020723;28;20215;-78
2021/01/16 05:10:41;;;;;;;16.90;9.80;;;3.00;99.90;;;;;;5034848;28;20218;-79
2021/01/16 05:13:15;;;;;;;13.00;9.07;;;2.90;1.00;;;;;;5016417;28;20605;-79
2021/01/16 05:15:45;;;;;;;16.97;9.83;;;3.00;99.90;;;;;;5042356;28;20562;-80
2021/01/16 05:18:12;;;;;;;15.27;9.00;;;3.00;53.40;;;;;;5030435;28;20283;-80
2021/01/16 05:20:42;;;;;;;22.33;10.80;;;3.00;15.60;;;;;;5037201;28;20242;-80
2021/01/16 05:23:13;;;;;;;13.27;9.27;;;3.00;1.00;;;;;;5036034;28;20235;-80
2021/01/16 05:25:46;;;;;;;16.30;9.60;;;2.90;1.00;;;;;;5036521;28;20306;-80
2021/01/16 05:28:15;;;;;;;16.57;8.73;;;2.90;99.90;;;;;;5048260;28;20200;-79
2021/01/16 05:30:54;;;;;;;16.73;9.50;;;2.90;1.00;;;;;;5024107;28;20200;-80
2021/01/16 05:33:24;;;;;;;16.33;9.80;;;2.80;1.00;;;;;;5050271;28;20196;-80
2021/01/16 05:35:53;;;;;;;15.43;8.27;;;2.60;99.90;;;;;;5022438;28;20203;-80
2021/01/16 05:38:31;;;;;;;14.90;9.33;;;2.60;1.00;;;;;;5040631;28;20269;-79
2021/01/16 05:40:59;;;;;;;13.97;8.50;;;2.50;1.00;;;;;;5029432;28;20205;-79
2021/01/16 05:43:26;;;;;;;16.20;8.73;;;2.30;1.00;;;;;;5039230;28;20215;-80
2021/01/16 05:45:58;;;;;;;15.60;9.77;;;2.30;1.00;;;;;;5031185;28;20405;-80
2021/01/16 05:48:29;;;;;;;15.60;9.07;;;2.40;1.00;;;;;;5028842;28;21015;-80
2021/01/16 05:50:56;;;;;;;11.87;8.63;;;2.40;1.00;;;;;;5033977;28;20199;-80
2021/01/16 05:53:25;;;;;;;15.03;8.20;;;2.30;1.00;;;;;;5046454;28;20196;-80
2021/01/16 05:55:53;;;;;;;14.80;8.47;;;2.10;1.00;;;;;;5022716;28;20199;-80
2021/01/16 05:58:20;;;;;;;16.47;9.33;;;2.20;1.00;;;;;;5032368;28;20203;-80
2021/01/16 06:00:51;;;;;;;14.43;8.40;;;2.20;99.90;;;;;;5041989;28;20192;-79
2021/01/16 06:03:19;;;;;;;17.83;8.70;;;2.20;99.90;;;;;;5041364;28;20199;-80
2021/01/16 06:05:51;;;;;;;16.33;8.17;;;2.10;87.20;;;;;;5037902;28;20546;-80
2021/01/16 06:08:20;;;;;;;14.53;8.93;;;2.10;1.00;;;;;;5059315;28;20280;-81
2021/01/16 06:10:55;;;;;;;16.00;8.37;;;2.10;1.00;;;;;;5027078;28;20207;-78
2021/01/16 06:13:26;;;;;;;19.93;10.00;;;2.10;1.00;;;;;;5026781;28;20223;-80
2021/01/16 06:15:54;;;;;;;13.40;8.27;;;2.10;1.00;;;;;;5033007;28;20196;-80
2021/01/16 06:18:28;;;;;;;17.47;9.83;;;2.00;1.00;;;;;;5033650;28;20206;-79
2021/01/16 06:20:55;;;;;;;15.70;8.90;;;2.10;82.10;;;;;;5047125;28;20197;-80
2021/01/16 06:23:25;;;;;;;14.27;8.63;;;2.10;1.00;;;;;;5041442;28;20234;-80
2021/01/16 06:25:56;;;;;;;14.57;9.07;;;2.10;1.00;;;;;;5026017;28;20594;-80
2021/01/16 06:28:28;;;;;;;12.73;7.90;;;2.20;1.00;;;;;;5044549;28;20605;-79
2021/01/16 06:30:58;;;;;;;16.83;9.37;;;2.30;1.00;;;;;;5034854;28;20242;-80
2021/01/16 06:33:29;;;;;;;14.57;8.57;;;2.20;89.70;;;;;;5056231;28;20223;-81
2021/01/16 06:36:02;;;;;;;13.53;9.13;;;2.40;1.00;;;;;;5041184;28;20200;-79
2021/01/16 06:38:33;;;;;;;17.87;9.47;;;2.50;99.90;;;;;;5051911;28;20196;-80
2021/01/16 06:41:16;;;;;;;13.20;8.40;;;2.40;99.90;;;;;;5010367;28;20215;-80
2021/01/16 06:43:44;;;;;;;16.27;9.57;;;2.40;99.90;;;;;;5038900;28;20207;-78
2021/01/16 06:46:15;;;;;;;16.30;9.27;;;2.50;1.00;;;;;;5046881;28;20206;-80
2021/01/16 06:48:44;;;;;;;14.40;8.73;;;2.60;99.90;;;;;;5045557;28;20291;-79
2021/01/16 06:51:22;;;;;;;14.03;8.30;;;2.30;1.00;;;;;;5045863;28;20251;-79
2021/01/16 06:53:50;;;;;;;14.80;8.83;;;2.20;55.20;;;;;;5056561;28;20568;-80
2021/01/16 06:56:28;;;;;;;14.83;9.43;;;2.20;1.00;;;;;;5039088;28;20219;-80
2021/01/16 06:58:55;;;;;;;15.37;8.40;;;2.40;20.80;;;;;;5060290;28;20307;-80
2021/01/16 07:01:32;;;;;;;13.93;8.50;;;2.60;1.00;;;;;;5017947;28;20218;-81
2021/01/16 07:04:00;;;;;;;21.37;9.40;;;2.60;1.00;;;;;;5042349;28;20279;-79
2021/01/16 07:06:26;;;;;;;13.73;8.07;;;2.60;97.20;;;;;;5013283;28;20283;-80
2021/01/16 07:08:53;;;;;;;11.10;7.63;;;2.50;1.00;;;;;;5040609;28;20197;-76
2021/01/16 07:11:20;;;;;;;11.73;7.70;;;2.70;1.00;;;;;;5038039;28;20687;-79
2021/01/16 07:13:49;;;;;;;11.80;7.87;;;2.90;1.00;;;;;;5042672;28;20666;-80
2021/01/16 07:16:17;;;;;;;12.77;7.73;;;3.10;1.00;;;;;;5062066;28;20295;-78
2021/01/16 07:18:45;;;;;;;15.23;7.90;;;3.00;1.00;;;;;;5020972;28;20203;-80
2021/01/16 07:21:12;;;;;;;10.20;7.13;;;3.10;1.00;;;;;;5043735;28;20226;-80
2021/01/16 07:23:38;;;;;;;14.00;7.00;;;3.10;1.00;;;;;;5042048;28;20724;-80
2021/01/16 07:26:08;;;;;;;12.60;7.80;;;2.90;1.00;;;;;;5042901;28;20230;-81
2021/01/16 07:28:35;;;;;;;14.20;8.63;;;2.90;1.00;;;;;;5039742;28;20200;-80
2021/01/16 07:31:02;;;;;;;13.50;8.10;;;3.00;1.00;;;;;;5028653;28;20207;-79
2021/01/16 07:33:30;;;;;;;13.10;7.10;;;3.10;1.00;;;;;;5024148;28;20208;-80
2021/01/16 07:35:58;;;;;;;11.70;7.67;;;3.10;1.00;;;;;;5055624;28;20200;-79
2021/01/16 07:38:27;;;;;;;12.70;7.80;;;3.10;1.00;;;;;;5046346;28;20404;-80
2021/01/16 07:40:56;;;;;;;13.27;8.47;;;2.80;1.00;;;;;;5025612;28;20487;-79
2021/01/16 07:43:28;;;;;;;13.60;8.30;;;2.90;1.00;;;;;;5053564;28;20207;-80
2021/01/16 07:46:01;;;;;;;11.93;7.90;;;2.90;1.00;;;;;;5058392;28;20528;-80
2021/01/16 07:48:34;;;;;;;13.00;8.67;;;2.80;1.00;;;;;;5045356;28;20283;-81
2021/01/16 07:51:01;;;;;;;13.70;8.37;;;2.50;99.90;;;;;;5041596;28;20204;-79
2021/01/16 07:53:29;;;;;;;14.90;8.00;;;2.30;1.00;;;;;;5044615;28;20259;-80
2021/01/16 07:56:04;;;;;;;13.77;7.97;;;2.30;99.90;;;;;;5045073;28;20268;-80
2021/01/16 07:58:41;;;;;;;15.97;8.23;;;2.30;1.00;;;;;;5043792;28;20275;-77
2021/01/16 08:01:16;;;;;;;14.13;8.37;;;2.10;1.00;;;;;;5035837;28;20313;-77
2021/01/16 08:03:42;;;;;;;16.17;8.70;;;2.30;99.90;;;;;;5044395;28;20589;-78
2021/01/16 08:06:27;;;;;;;14.40;8.67;;;2.20;1.00;;;;;;5044775;28;20197;-76
2021/01/16 08:09:11;;;;;;;13.47;7.80;;;2.10;99.90;;;;;;5040266;28;20287;-76
2021/01/16 08:11:50;;;;;;;14.97;7.80;;;2.30;1.00;;;;;;5041163;28;20231;-78
2021/01/16 08:14:21;;;;;;;13.90;8.20;;;2.20;1.00;;;;;;5023812;28;20206;-78
2021/01/16 08:17:01;;;;;;;14.60;7.80;;;2.10;1.00;;;;;;5026920;28;20579;-78
2021/01/16 08:19:32;;;;;;;17.03;8.40;;;2.00;1.00;;;;;;5030614;28;20212;-79
2021/01/16 08:21:59;;;;;;;15.40;8.93;;;2.10;1.00;;;;;;5041041;28;20204;-78
2021/01/16 08:24:28;;;;;;;16.93;8.40;;;2.20;1.00;;;;;;5037644;28;20293;-78
2021/01/16 08:26:56;;;;;;;16.33;8.80;;;2.30;1.00;;;;;;5039780;28;20274;-79
2021/01/16 08:29:24;;;;;;;14.77;8.07;;;2.20;1.00;;;;;;5022464;28;20563;-79
2021/01/16 08:32:11;;;;;;;16.67;8.80;;;2.10;1.00;;;;;;5054269;28;20235;-78
2021/01/16 08:34:51;;;;;;;15.50;8.47;;;2.00;1.00;;;;;;5040999;28;20246;-78
2021/01/16 08:37:32;;;;;;;14.90;8.20;;;2.00;1.00;;;;;;5026056;28;20269;-78
2021/01/16 08:40:00;;;;;;;13.33;7.43;;;2.00;1.00;;;;;;5040608;28;20282;-79
2021/01/16 08:42:28;;;;;;;15.50;9.47;;;1.90;1.00;;;;;;5042461;28;20209;-78
2021/01/16 08:44:57;;;;;;;20.00;7.93;;;1.90;1.00;;;;;;5008573;28;20243;-78
2021/01/16 08:47:24;;;;;;;13.67;9.43;;;1.90;99.90;;;;;;5012448;28;20258;-75
2021/01/16 08:49:51;;;;;;;14.10;8.70;;;2.00;1.00;;;;;;5021341;28;20214;-75
2021/01/16 08:52:32;;;;;;;15.40;8.77;;;1.90;1.00;;;;;;5021659;28;20208;-77
2021/01/16 08:55:02;;;;;;;16.53;9.70;;;1.90;1.00;;;;;;5042250;28;20218;-77
2021/01/16 08:57:35;;;;;;;14.00;8.50;;;2.00;1.00;;;;;;5044118;28;20235;-79
2021/01/16 09:00:17;;;;;;;14.87;9.10;;;1.90;1.00;;;;;;5038642;28;20284;-80
2021/01/16 09:03:03;;;;;;;18.47;9.87;;;1.70;99.90;;;;;;5019284;28;20202;-79
2021/01/16 09:05:30;;;;;;;14.23;8.70;;;1.80;99.90;;;;;;5056150;28;20231;-77
2021/01/16 09:07:57;;;;;;;17.77;10.13;;;1.80;98.50;;;;;;5055120;28;20366;-79
2021/01/16 09:10:24;;;;;;;14.80;8.23;;;1.80;1.00;;;;;;5043579;28;20292;-79
2021/01/16 09:12:54;;;;;;;17.50;9.73;;;1.70;1.00;;;;;;5025750;28;20218;-79
2021/01/16 09:15:30;;;;;;;16.17;10.00;;;1.70;1.00;;;;;;5036085;28;20230;-79
2021/01/16 09:18:06;;;;;;;15.47;9.20;;;1.70;1.00;;;;;;5042541;28;20217;-79
2021/01/16 09:20:35;;;;;;;17.43;9.27;;;2.00;1.00;;;;;;5038706;28;20262;-78
2021/01/16 09:23:32;;;;;;;18.13;9.00;;;1.90;1.00;;;;;;5035796;28;20320;-79
2021/01/16 09:25:59;;;;;;;19.07;10.63;;;1.90;1.00;;;;;;5022441;28;20282;-78
2021/01/16 09:29:00;;;;;;;15.77;8.87;;;2.00;1.00;;;;;;5035408;28;20199;-79
2021/01/16 09:31:29;;;;;;;18.67;10.17;;;2.00;99.90;;;;;;5039659;28;20200;-82
2021/01/16 09:34:07;;;;;;;21.13;9.20;;;2.20;99.90;;;;;;5021358;28;20207;-79
2021/01/16 09:36:35;;;;;;;15.80;9.57;;;2.10;99.90;;;;;;5055338;28;20321;-78
2021/01/16 09:39:03;;;;;;;20.83;10.03;;;2.20;1.00;;;;;;5028158;28;20834;-78
2021/01/16 09:41:34;;;;;;;18.73;9.27;;;2.10;1.00;;;;;;5039774;28;20207;-79
2021/01/16 09:44:04;;;;;;;19.47;10.70;;;1.90;1.00;;;;;;5020582;28;20269;-79
2021/01/16 09:46:39;;;;;;;15.93;9.53;;;2.00;99.90;;;;;;5026749;28;20244;-79
2021/01/16 09:49:08;;;;;;;19.10;9.17;;;2.10;1.00;;;;;;5061828;28;20209;-79
2021/01/16 09:51:37;;;;;;;16.43;9.70;;;2.00;1.00;;;;;;5023872;28;20210;-78
2021/01/16 09:54:09;;;;;;;18.67;9.87;;;2.00;1.00;;;;;;5022392;28;20206;-77
2021/01/16 09:56:44;;;;;;;15.17;7.53;;;1.90;1.00;;;;;;5041824;28;20213;-80
2021/01/16 09:59:28;;;;;;;20.33;9.17;;;2.00;1.00;;;;;;5037544;28;20757;-79
2021/01/16 10:02:09;;;;;;;19.67;9.53;;;2.00;1.00;;;;;;5035916;28;20197;-80
2021/01/16 10:04:45;;;;;;;15.30;8.10;;;2.10;1.00;;;;;;5018766;28;20670;-79
2021/01/16 10:07:13;;;;;;;15.07;8.03;;;2.00;1.00;;;;;;5038372;28;20274;-79
2021/01/16 10:09:48;;;;;;;15.47;8.50;;;2.10;99.90;;;;;;5055642;28;20207;-80
2021/01/16 10:12:45;;;;;;;19.17;8.10;;;2.10;1.00;;;;;;5039200;28;20367;-78
2021/01/16 10:15:18;;;;;;;15.77;8.13;;;2.10;1.00;;;;;;5039666;28;20208;-80
2021/01/16 10:17:56;;;;;;;16.50;8.30;;;2.00;1.00;;;;;;5034035;28;20211;-81
2021/01/16 10:20:34;;;;;;;16.53;8.93;;;2.10;1.00;;;;;;5019577;28;20227;-79
2021/01/16 10:23:06;;;;;;;15.27;8.03;;;2.20;99.90;;;;;;5042895;28;20278;-78
2021/01/16 10:25:42;;;;;;;14.50;7.90;;;2.30;99.90;;;;;;5007762;28;20655;-77
2021/01/16 10:28:26;;;;;;;14.87;7.10;;;2.20;99.90;;;;;;5039391;28;20622;-77
2021/01/16 10:31:04;;;;;;;16.10;7.83;;;2.20;99.90;;;;;;5035310;28;20197;-78
2021/01/16 10:33:49;;;;;;;16.47;9.33;;;2.30;1.00;;;;;;5018428;28;20231;-78
2021/01/16 10:36:17;;;;;;;12.87;7.53;;;2.30;99.90;;;;;;5017429;28;20202;-80
2021/01/16 10:38:50;;;;;;;13.40;7.07;;;2.30;12.50;;;;;;5019213;28;20204;-77
2021/01/16 10:41:19;;;;;;;13.40;7.83;;;2.40;1.00;;;;;;5038056;28;20211;-74
2021/01/16 10:43:47;;;;;;;14.07;7.57;;;2.40;99.90;;;;;;5014799;28;20200;-75
2021/01/16 10:46:25;;;;;;;13.60;8.23;;;2.30;1.00;;;;;;5021758;28;20199;-75
2021/01/16 10:48:51;;;;;;;10.93;6.93;;;2.30;1.00;;;;;;5017177;28;20503;-74
2021/01/16 10:51:23;;;;;;;12.30;6.93;;;2.30;1.00;;;;;;5041405;28;20227;-76
2021/01/16 10:53:56;;;;;;;11.90;6.87;;;2.50;1.00;;;;;;5025454;28;20211;-76
2021/01/16 10:56:26;;;;;;;11.23;6.83;;;2.40;1.00;;;;;;5037486;28;20337;-78
2021/01/16 10:59:08;;;;;;;14.87;5.90;;;2.20;1.00;;;;;;5036244;28;20207;-73
2021/01/16 11:01:44;;;;;;;10.97;6.57;;;2.30;1.00;;;;;;5028134;28;20258;-74
2021/01/16 11:04:26;;;;;;;9.47;5.67;;;2.50;1.00;;;;;;5037167;28;20309;-76
2021/01/16 11:06:55;;;;;;;10.10;6.00;;;2.60;1.00;;;;;;5045596;28;20570;-75
2021/01/16 11:09:33;;;;;;;14.43;5.53;;;2.50;1.00;;;;;;5036586;28;20657;-74
2021/01/16 11:12:05;;;;;;;13.03;6.43;;;2.50;1.00;;;;;;5041529;28;20211;-77
2021/01/16 11:14:42;;;;;;;12.10;6.13;;;2.40;99.90;;;;;;5043259;28;20203;-75
2021/01/16 11:17:11;;;;;;;9.50;5.50;;;2.50;1.00;;;;;;5025629;28;20304;-76
2021/01/16 11:19:41;;;;;;;12.17;7.10;;;2.40;99.90;;;;;;5044624;28;20248;-76
2021/01/16 11:22:12;;;;;;;11.80;6.40;;;2.50;99.90;;;;;;5044468;28;20264;-75
2021/01/16 11:24:53;;;;;;;7.87;5.47;;;2.50;99.90;;;;;;5039619;28;20239;-75
2021/01/16 11:27:27;;;;;;;12.40;6.77;;;2.50;99.90;;;;;;5044105;28;20208;-77
2021/01/16 11:30:03;;;;;;;11.00;6.43;;;2.40;1.00;;;;;;5055826;28;20264;-74
2021/01/16 11:32:35;;;;;;;10.60;6.13;;;2.40;99.90;;;;;;5045034;28;20213;-76
2021/01/16 11:35:07;;;;;;;9.17;4.73;;;2.60;99.90;;;;;;5040921;28;20251;-75
2021/01/16 11:37:48;;;;;;;8.00;4.87;;;2.40;99.90;;;;;;5027549;28;20266;-76
2021/01/16 11:40:27;;;;;;;11.03;5.47;;;2.40;99.90;;;;;;5035597;28;20199;-74
2021/01/16 11:43:17;;;;;;;10.80;6.13;;;2.40;99.90;;;;;;5040554;28;20257;-75
2021/01/16 11:45:43;;;;;;;7.87;5.07;;;2.40;99.90;;;;;;5036363;28;20207;-75
2021/01/16 11:48:09;;;;;;;10.63;5.70;;;2.30;99.90;;;;;;5034173;28;20268;-77
2021/01/16 11:50:37;;;;;;;8.27;5.40;;;2.30;99.90;;;;;;5038857;28;20249;-74
2021/01/16 11:53:11;;;;;;;10.20;5.70;;;2.30;25.60;;;;;;5019830;28;20219;-76
2021/01/16 11:55:38;;;;;;;10.17;5.43;;;2.30;99.90;;;;;;5026525;28;20577;-75
2021/01/16 11:58:05;;;;;;;12.70;5.40;;;2.30;99.90;;;;;;5040769;28;20309;-76
2021/01/16 12:00:32;;;;;;;9.20;5.53;;;2.40;99.90;;;;;;5022222;28;20206;-76
2021/01/16 12:03:16;;;;;;;9.00;5.60;;;2.40;99.90;;;;;;5054595;28;20749;-73
2021/01/16 12:05:43;;;;;;;9.87;6.13;;;2.60;99.90;;;;;;5041751;28;20312;-76
2021/01/16 12:08:12;;;;;;;5.80;4.27;;;2.40;99.90;;;;;;5036912;28;20206;-76
2021/01/16 12:10:39;;;;;;;6.40;4.87;;;2.40;15.70;;;;;;5023699;28;20207;-73
2021/01/16 12:13:10;;;;;;;9.63;5.23;;;2.40;1.00;;;;;;5040456;28;20234;-74
2021/01/16 12:15:37;;;;;;;7.70;4.93;;;2.40;1.00;;;;;;5038336;28;20219;-75
2021/01/16 12:18:04;;;;;;;7.80;4.80;;;2.50;1.00;;;;;;5037593;28;20318;-74
2021/01/16 12:20:31;;;;;;;7.33;3.63;;;2.50;1.00;;;;;;5037694;28;20205;-75
2021/01/16 12:23:00;;;;;;;7.60;4.10;;;2.30;1.00;;;;;;5034165;28;20289;-75
2021/01/16 12:25:33;;;;;;;9.33;4.17;;;2.30;1.00;;;;;;5027469;28;20226;-75
2021/01/16 12:28:02;;;;;;;8.13;4.40;;;2.30;1.00;;;;;;5020685;28;20206;-74
2021/01/16 12:30:37;;;;;;;4.77;3.27;;;2.30;1.00;;;;;;5021459;28;20200;-74
2021/01/16 12:33:03;;;;;;;4.60;3.27;;;2.30;1.00;;;;;;5037302;28;20712;-74
2021/01/16 12:35:30;;;;;;;7.63;4.07;;;2.30;1.00;;;;;;5013954;28;20210;-74
2021/01/16 12:37:57;;;;;;;8.17;4.57;;;2.30;1.00;;;;;;5027006;28;20317;-74
2021/01/16 12:40:25;;;;;;;8.27;4.60;;;2.40;1.00;;;;;;5030368;28;20204;-76
2021/01/16 12:42:53;;;;;;;7.13;4.53;;;2.50;1.00;;;;;;5031003;28;20324;-73
2021/01/16 12:45:22;;;;;;;6.27;3.63;;;2.40;1.00;;;;;;5034447;28;20214;-74
2021/01/16 12:47:54;;;;;;;7.23;3.60;;;2.30;1.00;;;;;;5033863;28;20250;-74
2021/01/16 12:50:23;;;;;;;7.10;4.07;;;2.30;1.00;;;;;;5035317;28;20243;-73
2021/01/16 12:52:51;;;;;;;8.10;4.37;;;2.20;99.90;;;;;;5012734;28;20693;-73
2021/01/16 12:55:21;;;;;;;7.53;3.60;;;2.30;99.90;;;;;;5031364;28;20271;-74
2021/01/16 12:57:50;;;;;;;5.33;3.47;;;2.30;1.00;;;;;;5033929;28;20215;-74
2021/01/16 13:00:18;;;;;;;7.67;4.03;;;2.20;99.90;;;;;;5022673;28;20290;-74
2021/01/16 13:02:47;;;;;;;7.13;3.90;;;2.30;99.90;;;;;;5039090;28;20629;-73
2021/01/16 13:05:17;;;;;;;5.13;3.17;;;2.30;99.90;;;;;;5034126;28;20230;-73
2021/01/16 13:07:44;;;;;;;6.07;3.33;;;2.20;99.90;;;;;;5036085;28;20663;-73
2021/01/16 13:10:14;;;;;;;6.87;3.90;;;2.20;99.90;;;;;;5019537;28;20960;-75
2021/01/16 13:12:43;;;;;;;7.43;4.37;;;2.30;99.90;;;;;;5034235;28;20207;-74
2021/01/16 13:15:39;;;;;;;4.87;3.10;;;2.30;99.90;;;;;;5035116;28;20667;-74